Time;durP1;ratioP1;P1;durP2;ratioP2;P2;SDS_P1;SDS_P2;PMS_P1;PMS_P2;Temp;Humidity;BMP_temperature;BMP_pressure;BME280_temperature;BME280_humidity;BME280_pressure;Samples;Min_cycle;Max_cycle;Signal;HPM_P1;HPM_P2
2022/04/02 00:00:35;;;;;;;2.15;1.30;;;;;;;10.91;59.03;93130.75;5117117;27;20031;-71
2022/04/02 00:03:01;;;;;;;3.92;1.15;;;;;;;10.94;54.35;93146.78;5116674;27;20104;-72
2022/04/02 00:05:27;;;;;;;4.40;1.10;;;;;;;10.92;54.57;93140.16;5127819;27;20085;-71
2022/04/02 00:07:52;;;;;;;4.30;1.40;;;;;;;10.88;55.08;93137.09;5120251;27;20041;-71
2022/04/02 00:10:18;;;;;;;6.75;1.20;;;;;;;10.93;58.60;93134.00;5105688;28;20032;-71
2022/04/02 00:12:44;;;;;;;4.03;1.10;;;;;;;10.94;54.70;93143.38;5125959;27;20042;-71
2022/04/02 00:15:09;;;;;;;2.83;1.13;;;;;;;10.93;56.01;93126.19;5114208;27;20027;-72
2022/04/02 00:17:35;;;;;;;1.88;0.70;;;;;;;10.87;54.40;93138.06;5131264;27;20024;-71
2022/04/02 00:20:00;;;;;;;3.95;1.00;;;;;;;10.83;54.99;93146.38;5129117;27;20030;-71
2022/04/02 00:22:26;;;;;;;4.20;1.10;;;;;;;10.81;56.03;93150.91;5153644;27;20042;-72
2022/04/02 00:24:51;;;;;;;1.60;0.90;;;;;;;10.84;55.34;93146.22;5134227;27;20039;-71
2022/04/02 00:27:16;;;;;;;1.90;0.90;;;;;;;10.73;54.87;93152.56;5111451;28;20481;-71
2022/04/02 00:29:42;;;;;;;2.28;1.00;;;;;;;10.73;55.67;93155.19;5116306;27;20386;-72
2022/04/02 00:32:08;;;;;;;2.38;1.00;;;;;;;10.72;56.80;93152.72;5128280;27;20020;-72
2022/04/02 00:34:33;;;;;;;2.58;0.80;;;;;;;10.66;55.63;93143.81;5122611;27;20042;-72
2022/04/02 00:36:59;;;;;;;2.05;0.80;;;;;;;10.53;55.61;93146.16;5115376;27;20062;-72
2022/04/02 00:39:25;;;;;;;2.50;0.85;;;;;;;10.40;55.86;93153.66;5130657;27;20057;-72
2022/04/02 00:41:51;;;;;;;3.75;0.90;;;;;;;10.47;55.30;93160.63;5122305;27;20028;-72
2022/04/02 00:44:21;;;;;;;2.47;1.10;;;;;;;10.49;56.66;93163.03;5122587;27;20035;-72
2022/04/02 00:46:47;;;;;;;5.25;1.17;;;;;;;10.42;55.61;93164.66;5123409;27;20035;-72
2022/04/02 00:49:13;;;;;;;3.17;0.90;;;;;;;10.50;56.24;93185.41;5113684;27;20033;-72
2022/04/02 00:51:42;;;;;;;1.98;0.90;;;;;;;10.48;54.28;93177.00;5125412;27;20035;-72
2022/04/02 00:54:18;;;;;;;2.40;0.70;;;;;;;10.55;54.24;93180.53;5119313;27;20028;-72
2022/04/02 00:56:44;;;;;;;1.50;0.80;;;;;;;10.58;56.76;93192.38;5112469;28;20027;-72
2022/04/02 00:59:09;;;;;;;1.75;0.70;;;;;;;10.51;56.04;93187.84;5111522;27;20489;-72
2022/04/02 01:01:35;;;;;;;1.15;0.70;;;;;;;10.56;54.06;93168.34;5095470;27;20039;-72
2022/04/02 01:04:02;;;;;;;1.75;0.85;;;;;;;10.51;53.39;93180.06;5130418;27;20026;-72
2022/04/02 01:06:28;;;;;;;1.65;0.80;;;;;;;10.62;52.51;93181.50;5132102;27;20035;-72
2022/04/02 01:08:54;;;;;;;2.05;0.80;;;;;;;10.66;54.26;93195.75;5113301;27;20046;-72
2022/04/02 01:11:19;;;;;;;2.42;0.90;;;;;;;10.55;54.09;93170.16;5112941;27;20519;-72
2022/04/02 01:13:45;;;;;;;2.30;1.00;;;;;;;10.58;58.17;93182.78;5118045;27;20394;-72
2022/04/02 01:16:10;;;;;;;2.53;0.88;;;;;;;10.42;59.88;93182.84;5118082;27;20546;-72
2022/04/02 01:18:36;;;;;;;3.40;0.75;;;;;;;10.49;55.22;93199.38;5095069;27;20031;-72
2022/04/02 01:21:01;;;;;;;3.83;0.73;;;;;;;10.43;53.00;93184.47;5117432;27;20042;-71
2022/04/02 01:23:29;;;;;;;3.00;1.00;;;;;;;10.58;52.63;93203.56;5143752;27;20146;-71
2022/04/02 01:25:56;;;;;;;2.85;1.00;;;;;;;10.55;53.17;93196.13;5122383;27;20428;-71
2022/04/02 01:28:23;;;;;;;2.40;0.77;;;;;;;10.61;52.37;93198.03;5129903;27;20065;-71
2022/04/02 01:30:48;;;;;;;2.38;0.90;;;;;;;10.59;58.34;93212.19;5116893;27;20132;-71
2022/04/02 01:33:14;;;;;;;1.52;0.77;;;;;;;10.38;53.97;93197.13;5113393;27;20439;-71
2022/04/02 01:35:39;;;;;;;3.03;1.00;;;;;;;10.45;52.88;93216.28;5099383;27;20054;-71
2022/04/02 01:38:04;;;;;;;2.92;0.90;;;;;;;10.54;54.29;93224.84;5130083;27;20211;-71
2022/04/02 01:40:30;;;;;;;1.70;0.77;;;;;;;10.47;50.98;93178.78;5131254;27;20031;-71
2022/04/02 01:42:55;;;;;;;1.55;0.90;;;;;;;10.53;51.72;93185.09;5132265;27;20011;-71
2022/04/02 01:45:21;;;;;;;2.17;1.00;;;;;;;10.69;50.94;93190.22;5100219;27;20039;-71
2022/04/02 01:47:46;;;;;;;1.00;0.70;;;;;;;10.69;52.07;93194.63;5129450;27;20034;-72
2022/04/02 01:50:11;;;;;;;3.92;0.98;;;;;;;10.68;51.14;93198.22;5121390;27;20027;-71
2022/04/02 01:52:37;;;;;;;1.10;0.73;;;;;;;10.66;51.90;93206.16;5106675;27;20023;-72
2022/04/02 01:55:03;;;;;;;1.92;0.90;;;;;;;10.68;51.09;93206.81;5106648;27;20420;-71
2022/04/02 01:57:28;;;;;;;2.58;0.80;;;;;;;10.80;49.93;93214.25;5131101;27;20415;-72
2022/04/02 01:59:54;;;;;;;2.05;0.93;;;;;;;10.83;49.58;93219.91;5119235;27;20046;-72
2022/04/02 02:02:20;;;;;;;1.35;0.88;;;;;;;10.78;49.18;93211.81;5122592;27;20031;-71
2022/04/02 02:04:45;;;;;;;2.17;0.85;;;;;;;10.81;49.64;93205.47;5121855;27;20032;-72
2022/04/02 02:07:11;;;;;;;2.53;0.80;;;;;;;10.87;49.26;93215.19;5115592;27;20452;-71
2022/04/02 02:09:36;;;;;;;2.15;1.00;;;;;;;10.72;48.39;93176.09;5129564;27;20035;-71
2022/04/02 02:12:02;;;;;;;2.95;1.00;;;;;;;10.80;49.56;93209.03;5118355;27;20024;-71
2022/04/02 02:14:28;;;;;;;2.53;0.95;;;;;;;10.80;49.70;93196.84;5127595;27;20043;-71
2022/04/02 02:16:54;;;;;;;2.00;1.00;;;;;;;10.63;50.32;93177.13;5096829;28;20111;-72
2022/04/02 02:19:19;;;;;;;3.45;0.95;;;;;;;10.62;49.92;93184.09;5127988;27;20033;-72
2022/04/02 02:21:45;;;;;;;1.27;0.70;;;;;;;10.62;49.07;93171.13;5110142;28;20027;-71
2022/04/02 02:24:10;;;;;;;2.25;0.80;;;;;;;10.72;49.14;93168.31;5120490;27;20037;-71
2022/04/02 02:26:35;;;;;;;4.82;0.70;;;;;;;10.69;48.77;93166.06;5131840;27;20546;-72
2022/04/02 02:29:04;;;;;;;1.50;0.80;;;;;;;10.68;50.72;93162.66;5119738;27;20076;-71
2022/04/02 02:31:30;;;;;;;2.08;0.82;;;;;;;10.66;49.73;93158.59;5149950;27;20065;-72
2022/04/02 02:36:40;;;;;;;2.25;1.25;;;;;;;10.74;48.40;93163.78;5111712;28;20516;-71
2022/04/02 02:39:05;;;;;;;1.65;1.27;;;;;;;10.86;48.21;93172.00;5129868;27;20027;-71
2022/04/02 02:41:31;;;;;;;1.35;0.80;;;;;;;10.93;48.18;93170.34;5112865;28;20034;-71
2022/04/02 02:43:56;;;;;;;2.90;0.90;;;;;;;11.00;48.58;93163.50;5109333;28;20031;-71
2022/04/02 02:46:21;;;;;;;1.58;0.70;;;;;;;10.92;49.06;93153.97;5111088;28;20070;-71
2022/04/02 02:48:47;;;;;;;2.38;0.82;;;;;;;11.03;46.72;93168.38;5112243;28;20053;-71
2022/04/02 02:51:13;;;;;;;1.50;0.80;;;;;;;11.08;47.11;93167.84;5121020;27;20027;-71
2022/04/02 02:53:38;;;;;;;1.40;0.73;;;;;;;11.03;47.68;93176.16;5110986;28;20058;-71
2022/04/02 02:56:04;;;;;;;1.58;0.70;;;;;;;11.03;47.86;93170.97;5112533;28;20409;-71
2022/04/02 02:58:30;;;;;;;2.03;0.77;;;;;;;11.04;46.67;93151.78;5112018;28;20027;-72
2022/04/02 03:00:55;;;;;;;1.10;0.70;;;;;;;11.03;47.01;93165.78;5118095;28;20038;-71
2022/04/02 03:03:22;;;;;;;2.03;0.70;;;;;;;10.90;47.34;93134.34;5118142;28;20485;-71
2022/04/02 03:05:50;;;;;;;3.47;1.05;;;;;;;10.99;47.94;93154.09;5124322;28;20024;-71
2022/04/02 03:08:16;;;;;;;1.73;1.23;;;;;;;11.03;46.60;93176.16;5110723;28;20035;-71
2022/04/02 03:10:42;;;;;;;1.58;0.63;;;;;;;10.94;47.97;93177.97;5119361;28;20027;-71
2022/04/02 03:13:07;;;;;;;1.08;0.70;;;;;;;10.93;48.50;93183.34;5120313;28;20042;-72
2022/04/02 03:15:33;;;;;;;1.35;0.57;;;;;;;10.95;47.92;93184.00;5096541;28;20089;-71
2022/04/02 03:18:03;;;;;;;1.20;0.68;;;;;;;10.95;48.46;93191.78;5129249;28;20023;-71
2022/04/02 03:20:28;;;;;;;2.20;0.73;;;;;;;10.98;48.30;93201.84;5101875;28;20046;-71
2022/04/02 03:22:54;;;;;;;4.28;0.70;;;;;;;10.98;49.37;93181.06;5117814;28;20027;-71
2022/04/02 03:25:20;;;;;;;0.90;0.60;;;;;;;10.89;48.36;93187.25;5128844;27;20561;-71
2022/04/02 03:27:46;;;;;;;3.47;0.80;;;;;;;10.88;47.78;93196.84;5115199;27;20027;-71
2022/04/02 03:30:13;;;;;;;1.48;0.82;;;;;;;10.74;48.09;93174.97;5132208;27;20058;-71
2022/04/02 03:32:39;;;;;;;2.85;0.70;;;;;;;10.76;48.77;93202.56;5108708;28;20545;-71
2022/04/02 03:35:05;;;;;;;2.50;0.68;;;;;;;10.64;48.32;93187.34;5129227;27;20118;-71
2022/04/02 03:37:31;;;;;;;4.13;0.70;;;;;;;10.60;48.18;93212.00;5116130;27;20048;-71
2022/04/02 03:39:56;;;;;;;1.13;0.68;;;;;;;10.60;48.67;93209.41;5127150;27;20031;-71
2022/04/02 03:42:22;;;;;;;2.00;0.57;;;;;;;10.58;48.23;93193.19;5115780;27;20995;-71
2022/04/02 03:44:48;;;;;;;1.98;0.77;;;;;;;10.73;46.91;93186.34;5118393;27;20072;-71
2022/04/02 03:47:15;;;;;;;2.28;0.90;;;;;;;10.74;46.18;93187.94;5106807;27;20031;-71
2022/04/02 03:49:43;;;;;;;0.90;0.70;;;;;;;10.86;47.37;93200.56;5129014;27;20035;-72
2022/04/02 03:52:08;;;;;;;1.55;0.70;;;;;;;10.89;47.40;93206.25;5114141;27;20034;-71
2022/04/02 03:54:38;;;;;;;1.10;0.70;;;;;;;10.91;46.82;93199.09;5097251;27;20031;-72
2022/04/02 03:57:06;;;;;;;1.43;0.60;;;;;;;10.84;45.70;93199.94;5114159;27;20027;-72
2022/04/02 03:59:32;;;;;;;1.88;0.65;;;;;;;10.91;46.46;93199.09;5114035;27;20110;-72
2022/04/02 04:01:58;;;;;;;1.60;0.60;;;;;;;10.91;46.54;93180.09;5110278;27;20106;-71
2022/04/02 04:04:24;;;;;;;1.77;0.65;;;;;;;10.95;45.01;93182.22;5130927;27;20035;-72
2022/04/02 04:06:50;;;;;;;1.58;0.60;;;;;;;11.00;44.65;93189.47;5129441;27;20057;-72
2022/04/02 04:09:15;;;;;;;1.52;0.60;;;;;;;11.09;45.51;93193.69;5114605;27;20027;-72
2022/04/02 04:11:41;;;;;;;0.98;0.60;;;;;;;11.14;46.05;93190.56;5133120;27;20408;-71
2022/04/02 04:14:06;;;;;;;2.05;0.70;;;;;;;11.16;46.02;93214.59;5129788;27;20469;-72
2022/04/02 04:16:32;;;;;;;2.13;0.45;;;;;;;11.22;44.89;93221.69;5116698;27;20179;-72
2022/04/02 04:18:57;;;;;;;1.42;0.50;;;;;;;11.23;44.73;93225.09;5130093;27;20541;-72
2022/04/02 04:21:24;;;;;;;0.93;0.50;;;;;;;11.13;44.73;93220.13;5124068;27;20023;-72
2022/04/02 04:23:50;;;;;;;0.70;0.50;;;;;;;11.09;46.63;93252.66;5126540;27;20477;-71
2022/04/02 04:26:16;;;;;;;3.05;0.60;;;;;;;11.03;46.58;93242.91;5123810;27;20114;-72
2022/04/02 04:28:41;;;;;;;0.80;0.45;;;;;;;11.04;46.48;93249.72;5125217;27;20031;-72
2022/04/02 04:31:07;;;;;;;0.85;0.50;;;;;;;11.07;45.58;93258.00;5096431;28;20036;-72
2022/04/02 04:33:32;;;;;;;1.13;0.50;;;;;;;11.12;45.37;93247.09;5096223;27;20098;-72
2022/04/02 04:35:58;;;;;;;2.30;0.50;;;;;;;11.06;45.31;93256.38;5105917;27;20047;-71
2022/04/02 04:38:23;;;;;;;1.77;0.55;;;;;;;11.13;45.86;93246.91;5133507;27;20027;-72
2022/04/02 04:40:49;;;;;;;1.55;0.50;;;;;;;11.19;45.99;93259.22;5122908;27;20035;-71
2022/04/02 04:43:14;;;;;;;1.00;0.40;;;;;;;11.18;46.72;93267.22;5134220;27;20408;-71
2022/04/02 04:45:40;;;;;;;1.25;0.50;;;;;;;11.18;44.96;93262.03;5119816;27;20417;-70
2022/04/02 04:48:05;;;;;;;1.05;0.40;;;;;;;11.24;45.64;93274.34;5114312;27;20670;-71
2022/04/02 04:50:31;;;;;;;0.90;0.50;;;;;;;11.30;45.85;93281.47;5129980;27;20118;-71
2022/04/02 04:52:57;;;;;;;1.48;0.65;;;;;;;11.21;45.99;93297.25;5128067;27;20030;-71
2022/04/02 04:55:23;;;;;;;2.72;0.50;;;;;;;11.16;46.43;93308.97;5107236;27;20039;-72
2022/04/02 04:57:48;;;;;;;1.27;0.50;;;;;;;11.09;45.22;93295.03;5095945;28;20460;-71
2022/04/02 05:00:15;;;;;;;0.80;0.50;;;;;;;11.18;44.37;93291.41;5116446;27;20066;-72
2022/04/02 05:02:41;;;;;;;1.25;0.52;;;;;;;11.43;44.68;93291.34;5140129;27;20057;-72
2022/04/02 05:05:07;;;;;;;1.00;0.50;;;;;;;12.49;43.20;93282.88;5136054;27;20394;-72
2022/04/02 05:07:32;;;;;;;1.40;0.60;;;;;;;13.12;41.93;93288.66;5134084;27;20034;-72
2022/04/02 05:09:58;;;;;;;0.77;0.50;;;;;;;13.92;41.52;93283.63;5131372;27;20412;-72
2022/04/02 05:12:23;;;;;;;1.75;0.60;;;;;;;14.62;37.65;93290.75;5131224;27;20035;-70
2022/04/02 05:14:49;;;;;;;0.90;0.50;;;;;;;15.38;36.97;93290.91;5133567;27;20023;-72
2022/04/02 05:17:16;;;;;;;1.30;0.60;;;;;;;16.24;34.90;93292.25;5132834;27;20023;-72
2022/04/02 05:19:42;;;;;;;0.98;0.50;;;;;;;16.70;34.10;93292.31;5128505;27;20034;-73
2022/04/02 05:22:10;;;;;;;1.05;0.55;;;;;;;17.17;33.61;93290.53;5114422;27;20028;-71
2022/04/02 05:24:36;;;;;;;1.92;0.95;;;;;;;17.76;31.74;93254.63;5131263;27;20382;-74
2022/04/02 05:27:02;;;;;;;1.98;0.60;;;;;;;17.40;32.36;93300.56;5130025;27;20029;-71
2022/04/02 05:29:28;;;;;;;3.03;0.60;;;;;;;17.51;31.51;93295.72;5126140;27;20047;-73
2022/04/02 05:31:55;;;;;;;2.42;0.60;;;;;;;17.20;32.30;93294.56;5125563;27;20023;-73
2022/04/02 05:34:20;;;;;;;1.95;0.60;;;;;;;16.55;33.66;93276.00;5101367;27;20035;-71
2022/04/02 05:36:46;;;;;;;1.08;0.40;;;;;;;15.75;34.52;93281.03;5110756;27;20048;-73
2022/04/02 05:39:11;;;;;;;0.98;0.40;;;;;;;15.03;36.07;93278.81;5095110;28;20489;-72
2022/04/02 05:41:37;;;;;;;1.38;0.50;;;;;;;14.35;37.01;93281.88;5123590;27;20031;-72
2022/04/02 05:44:04;;;;;;;1.27;0.60;;;;;;;14.11;38.49;93306.53;5132612;27;20026;-73
2022/04/02 05:46:29;;;;;;;1.67;0.50;;;;;;;13.93;39.38;93290.47;5130944;27;20132;-72
2022/04/02 05:48:55;;;;;;;1.10;0.50;;;;;;;13.88;39.84;93300.69;5113222;27;20027;-69
2022/04/02 05:51:20;;;;;;;1.08;0.50;;;;;;;13.77;39.07;93294.94;5110367;28;20549;-70
2022/04/02 05:53:46;;;;;;;0.80;0.47;;;;;;;13.40;40.25;93311.53;5110486;28;20032;-70
2022/04/02 05:56:11;;;;;;;2.30;0.82;;;;;;;13.09;40.19;93296.84;5120178;27;20068;-71
2022/04/02 05:58:37;;;;;;;1.08;0.50;;;;;;;12.91;40.50;93289.34;5130887;27;20054;-71
2022/04/02 06:01:03;;;;;;;1.40;0.50;;;;;;;12.62;41.08;93292.72;5120850;27;20400;-73
2022/04/02 06:03:28;;;;;;;1.50;0.60;;;;;;;12.35;41.25;93304.50;5116598;27;20024;-72
2022/04/02 06:05:54;;;;;;;1.95;0.60;;;;;;;12.39;42.16;93291.91;5091394;27;20032;-70
2022/04/02 06:08:20;;;;;;;1.80;0.60;;;;;;;12.30;42.20;93309.41;5127779;27;20205;-71
2022/04/02 06:10:45;;;;;;;1.38;0.80;;;;;;;12.41;41.42;93311.59;5127944;27;20037;-78
2022/04/02 06:13:11;;;;;;;3.08;0.70;;;;;;;12.28;42.40;93319.16;5094454;28;20027;-72
2022/04/02 06:15:37;;;;;;;2.40;0.70;;;;;;;12.25;41.25;93302.09;5115186;27;20477;-78
2022/04/02 06:18:03;;;;;;;1.70;0.60;;;;;;;12.23;42.97;93303.25;5129926;27;20038;-75
2022/04/02 06:20:28;;;;;;;1.75;0.70;;;;;;;12.35;41.11;93316.69;5127056;27;20035;-73
2022/04/02 06:22:54;;;;;;;1.08;0.57;;;;;;;12.28;41.75;93311.38;5103525;27;20095;-73
2022/04/02 06:25:19;;;;;;;3.38;0.88;;;;;;;12.22;41.16;93330.28;5129839;27;20468;-74
2022/04/02 06:27:46;;;;;;;2.17;0.70;;;;;;;12.18;41.23;93329.03;5129873;27;20051;-74
2022/04/02 06:30:12;;;;;;;2.38;0.80;;;;;;;12.26;41.69;93329.78;5103390;28;20028;-76
2022/04/02 06:32:38;;;;;;;1.58;0.60;;;;;;;12.24;41.07;93330.94;5121669;27;20142;-75
2022/04/02 06:35:04;;;;;;;1.90;0.77;;;;;;;12.38;41.33;93339.78;5122478;27;20416;-76
2022/04/02 06:37:34;;;;;;;3.67;0.80;;;;;;;12.44;40.45;93350.31;5124289;27;20721;-72
2022/04/02 06:39:59;;;;;;;2.75;0.65;;;;;;;12.50;40.82;93357.41;5119926;28;20437;-72
2022/04/02 06:42:24;;;;;;;1.90;0.70;;;;;;;12.47;40.72;93354.38;5127304;28;20076;-72
2022/04/02 06:44:50;;;;;;;1.27;0.80;;;;;;;12.46;41.29;93358.78;5128478;27;20060;-73
2022/04/02 06:47:15;;;;;;;1.55;0.60;;;;;;;12.53;40.95;93349.25;5127614;27;20034;-71
2022/04/02 06:49:41;;;;;;;1.50;0.50;;;;;;;12.60;41.30;93357.19;5123140;28;20386;-73
2022/04/02 06:52:06;;;;;;;1.15;0.60;;;;;;;12.51;41.23;93342.63;5145863;27;20046;-72
2022/04/02 06:54:33;;;;;;;4.35;0.80;;;;;;;12.53;41.23;93356.28;5114632;27;20464;-72
2022/04/02 06:56:58;;;;;;;2.42;0.70;;;;;;;12.52;40.76;93339.84;5121433;27;20457;-72
2022/04/02 06:59:24;;;;;;;4.55;2.00;;;;;;;12.66;40.00;93351.28;5129779;27;20034;-73
2022/04/02 07:01:49;;;;;;;4.25;1.30;;;;;;;12.73;40.62;93352.22;5130983;27;20019;-76
2022/04/02 07:04:15;;;;;;;3.75;1.20;;;;;;;12.78;40.29;93349.06;5102393;27;20542;-77
2022/04/02 07:06:44;;;;;;;2.72;0.85;;;;;;;12.75;41.12;93346.81;5125186;27;20293;-74
2022/04/02 07:09:11;;;;;;;4.00;1.98;;;;;;;12.85;39.94;93355.22;5114015;27;20146;-77
2022/04/02 07:11:36;;;;;;;9.32;4.15;;;;;;;12.86;40.59;93366.44;5124376;27;20477;-78
2022/04/02 07:14:02;;;;;;;2.13;1.30;;;;;;;12.72;40.67;93365.41;5100207;28;20031;-74
2022/04/02 07:16:28;;;;;;;2.17;0.80;;;;;;;12.74;40.21;93366.06;5124181;27;20023;-74
2022/04/02 07:18:54;;;;;;;2.10;0.60;;;;;;;12.72;40.88;93366.22;5124137;27;20034;-74
2022/04/02 07:21:20;;;;;;;0.90;0.60;;;;;;;12.64;40.46;93366.28;5116868;27;20035;-74
2022/04/02 07:23:46;;;;;;;1.80;1.25;;;;;;;12.67;39.60;93371.13;5134339;27;20130;-74
2022/04/02 07:26:11;;;;;;;5.28;0.73;;;;;;;12.59;39.15;93386.03;5116386;27;20488;-74
2022/04/02 07:28:37;;;;;;;2.45;0.80;;;;;;;12.61;38.85;93363.22;5112487;28;20047;-74
2022/04/02 07:31:02;;;;;;;2.13;1.17;;;;;;;12.57;39.48;93351.53;5100169;28;20405;-75
2022/04/02 07:33:28;;;;;;;2.38;1.00;;;;;;;12.53;39.99;93351.88;5095293;28;20163;-75
2022/04/02 07:35:55;;;;;;;3.08;0.90;;;;;;;12.66;38.46;93363.50;5112988;28;20347;-74
2022/04/02 07:38:42;;;;;;;2.95;0.88;;;;;;;12.81;39.21;93387.81;5114781;28;20532;-75
2022/04/02 07:41:33;;;;;;;1.50;0.80;;;;;;;12.92;38.50;93378.75;5097266;28;20035;-75
2022/04/02 07:44:03;;;;;;;1.45;0.80;;;;;;;13.00;38.94;93388.31;5097091;28;20026;-75
2022/04/02 07:46:30;;;;;;;6.80;1.50;;;;;;;13.09;39.96;93387.25;5097139;28;20527;-75
2022/04/02 07:48:56;;;;;;;1.50;0.80;;;;;;;13.10;38.33;93386.28;5114776;28;20035;-74
2022/04/02 07:51:21;;;;;;;2.03;1.00;;;;;;;13.07;37.22;93387.44;5096528;28;20169;-75
2022/04/02 07:53:50;;;;;;;3.15;0.88;;;;;;;12.99;38.37;93386.72;5113491;28;20027;-74
2022/04/02 07:56:31;;;;;;;2.88;0.90;;;;;;;13.02;38.34;93376.72;5096491;28;20035;-75
2022/04/02 07:59:06;;;;;;;1.58;0.80;;;;;;;13.07;38.40;93381.44;5097282;28;20066;-75
2022/04/02 08:01:31;;;;;;;1.58;0.95;;;;;;;13.04;38.52;93381.75;5096982;28;20043;-74
2022/04/02 08:03:58;;;;;;;2.25;1.00;;;;;;;13.10;38.19;93379.25;5096349;28;20485;-75
2022/04/02 08:06:23;;;;;;;3.05;0.93;;;;;;;13.00;39.49;93359.66;5113039;28;20054;-75
2022/04/02 08:08:49;;;;;;;2.08;0.95;;;;;;;13.07;37.71;93344.94;5096025;28;20047;-75
2022/04/02 08:11:15;;;;;;;1.65;0.77;;;;;;;13.19;37.47;93351.31;5113895;28;20034;-75
2022/04/02 08:13:43;;;;;;;2.17;0.98;;;;;;;13.17;37.48;93371.53;5096252;28;20504;-75
2022/04/02 08:16:09;;;;;;;2.95;1.00;;;;;;;13.24;37.75;93375.06;5112995;28;20043;-75
2022/04/02 08:18:35;;;;;;;3.38;1.17;;;;;;;13.19;38.06;93364.34;5096007;28;20023;-75
2022/04/02 08:21:00;;;;;;;1.73;0.90;;;;;;;13.25;38.62;93348.00;5114164;28;20489;-75
2022/04/02 08:23:26;;;;;;;2.03;0.82;;;;;;;13.33;36.28;93347.94;5096102;28;20036;-75
2022/04/02 08:26:26;;;;;;;4.65;1.02;;;;;;;13.43;36.75;93352.06;5114353;28;20035;-75
2022/04/02 08:29:15;;;;;;;1.70;0.90;;;;;;;13.49;36.27;93351.38;5112582;28;20053;-75
2022/04/02 08:31:54;;;;;;;1.27;0.73;;;;;;;13.55;37.09;93361.09;5112806;28;20489;-75
2022/04/02 08:34:26;;;;;;;3.53;1.77;;;;;;;13.57;38.59;93365.13;5112773;28;20073;-75
2022/04/02 08:36:57;;;;;;;3.78;1.40;;;;;;;13.66;37.92;93372.88;5113846;28;20044;-75
2022/04/02 08:39:36;;;;;;;2.92;1.42;;;;;;;13.70;37.66;93363.69;5112536;28;20101;-75
2022/04/02 08:42:32;;;;;;;1.80;1.08;;;;;;;13.77;38.53;93369.81;5095768;28;20414;-75
2022/04/02 08:45:04;;;;;;;2.20;1.00;;;;;;;13.77;37.35;93369.81;5113851;28;20063;-75
2022/04/02 08:48:04;;;;;;;3.13;1.08;;;;;;;13.91;36.87;93368.16;5113559;27;20350;-75
2022/04/02 08:50:31;;;;;;;3.10;1.10;;;;;;;14.14;36.65;93368.03;5113685;28;20047;-75
2022/04/02 08:53:15;;;;;;;1.75;0.90;;;;;;;14.25;36.72;93383.22;5113573;28;20512;-75
2022/04/02 08:55:49;;;;;;;3.17;1.30;;;;;;;14.26;36.60;93410.94;5112413;28;20075;-75
2022/04/02 08:58:43;;;;;;;2.05;0.90;;;;;;;14.28;35.78;93401.94;5112263;28;20019;-75
2022/04/02 09:01:10;;;;;;;2.65;1.13;;;;;;;14.25;36.92;93398.91;5112286;28;20133;-75
2022/04/02 09:03:56;;;;;;;3.22;1.60;;;;;;;14.10;36.82;93412.00;5112288;28;20032;-75
2022/04/02 09:06:36;;;;;;;8.70;3.30;;;;;;;13.92;36.86;93411.53;5114253;28;20031;-74
2022/04/02 09:09:04;;;;;;;4.00;1.70;;;;;;;13.91;36.64;93387.25;5113652;28;20031;-75
2022/04/02 09:11:32;;;;;;;3.00;1.35;;;;;;;14.01;36.50;93345.19;5112055;28;20032;-74
2022/04/02 09:14:32;;;;;;;2.35;0.82;;;;;;;14.07;36.25;93303.50;5112025;28;20517;-74
2022/04/02 09:17:03;;;;;;;3.00;1.50;;;;;;;14.07;36.81;93349.69;5098184;28;20043;-74
2022/04/02 09:19:29;;;;;;;2.22;0.90;;;;;;;14.20;37.42;93355.03;5111865;28;20492;-75
2022/04/02 09:21:58;;;;;;;2.22;1.17;;;;;;;14.45;37.45;93360.72;5113023;28;20031;-74
2022/04/02 09:24:33;;;;;;;2.42;1.10;;;;;;;14.64;36.92;93354.13;5112788;28;20031;-75
2022/04/02 09:27:19;;;;;;;4.60;2.53;;;;;;;15.03;35.38;93359.88;5112630;28;20059;-74
2022/04/02 09:30:06;;;;;;;3.88;1.20;;;;;;;15.21;35.16;93365.47;5112735;27;20051;-75
2022/04/02 09:32:53;;;;;;;4.75;1.30;;;;;;;15.41;35.44;93365.59;5094622;28;20536;-74
2022/04/02 09:35:58;;;;;;;2.55;1.00;;;;;;;15.56;35.13;93339.31;5113228;28;20043;-75
2022/04/02 09:38:43;;;;;;;1.50;0.85;;;;;;;15.67;33.40;93319.63;5057497;28;20044;-74
2022/04/02 09:41:16;;;;;;;2.92;1.00;;;;;;;15.62;34.18;93321.00;5112353;28;20068;-74
2022/04/02 09:44:17;;;;;;;1.60;0.82;;;;;;;15.57;34.35;93319.97;5111438;28;20511;-74
2022/04/02 09:47:11;;;;;;;1.90;1.15;;;;;;;15.61;34.12;93310.75;5111180;28;20469;-74
2022/04/02 09:49:39;;;;;;;2.22;1.15;;;;;;;15.56;34.23;93319.16;5101846;28;20076;-74
2022/04/02 09:52:06;;;;;;;5.55;1.33;;;;;;;15.56;33.51;93313.94;5112119;28;20031;-74
2022/04/02 09:54:34;;;;;;;4.43;1.30;;;;;;;15.55;34.78;93333.28;5094077;28;20036;-74
2022/04/02 09:57:08;;;;;;;4.68;1.30;;;;;;;15.36;36.60;93339.19;5112181;28;20027;-74
2022/04/02 10:00:07;;;;;;;3.58;1.33;;;;;;;15.38;35.61;93345.84;5110928;28;20393;-74
2022/04/02 10:02:57;;;;;;;3.30;1.58;;;;;;;15.51;34.46;93333.84;5098536;28;20039;-74
2022/04/02 10:05:30;;;;;;;2.78;1.30;;;;;;;15.39;33.35;93316.06;5112408;28;20032;-74
2022/04/02 10:08:06;;;;;;;2.47;1.40;;;;;;;15.42;33.34;93325.34;5094996;28;20040;-74
2022/04/02 10:10:31;;;;;;;2.78;1.10;;;;;;;15.37;34.10;93325.91;5110741;28;20043;-74
2022/04/02 10:12:57;;;;;;;2.10;1.20;;;;;;;15.24;34.90;93309.31;5110867;28;20111;-74
2022/04/02 10:15:23;;;;;;;3.08;1.30;;;;;;;15.44;33.87;93315.50;5093977;28;20077;-75
2022/04/02 10:17:52;;;;;;;2.97;1.20;;;;;;;15.63;33.30;93309.56;5110688;28;20057;-74
2022/04/02 10:20:24;;;;;;;2.95;1.00;;;;;;;15.74;32.39;93302.16;5093955;28;20031;-74
2022/04/02 10:23:06;;;;;;;2.58;1.10;;;;;;;15.70;32.09;93306.19;5111700;28;20034;-74
2022/04/02 10:25:32;;;;;;;1.65;0.85;;;;;;;15.48;31.59;93306.25;5110594;28;20035;-75
2022/04/02 10:27:57;;;;;;;2.22;1.10;;;;;;;15.45;31.47;93293.56;5093516;28;20034;-75
2022/04/02 10:30:23;;;;;;;1.40;0.90;;;;;;;15.48;32.09;93294.97;5093489;28;20023;-75
2022/04/02 10:33:25;;;;;;;2.30;0.70;;;;;;;15.61;31.28;93298.47;5093509;28;20481;-75
2022/04/02 10:35:44;;;;;;;4.15;0.90;;;;;;;15.65;30.81;93302.28;5109727;28;20043;-75
2022/04/02 10:38:28;;;;;;;2.05;0.98;;;;;;;15.63;31.31;93296.47;5110340;28;20023;-75
2022/04/02 10:40:53;;;;;;;3.00;0.80;;;;;;;15.54;31.09;93317.75;5111422;28;20036;-75
2022/04/02 10:43:29;;;;;;;2.17;0.70;;;;;;;15.31;30.92;93297.91;5110161;28;20493;-75
2022/04/02 10:45:56;;;;;;;3.35;0.82;;;;;;;15.04;30.71;93319.66;5111989;28;20159;-75
2022/04/02 10:48:47;;;;;;;1.42;0.80;;;;;;;15.15;31.74;93319.13;5093326;28;20452;-75
2022/04/02 10:51:13;;;;;;;2.30;1.15;;;;;;;15.28;32.37;93310.56;5108276;28;20047;-75
2022/04/02 10:53:42;;;;;;;1.80;0.60;;;;;;;15.32;31.92;93298.69;5093407;28;20416;-75
2022/04/02 10:56:15;;;;;;;3.05;0.85;;;;;;;15.25;32.48;93311.75;5093229;28;20053;-75
2022/04/02 10:58:40;;;;;;;2.08;1.10;;;;;;;15.28;32.61;93323.66;5110208;28;20027;-75
2022/04/02 11:01:07;;;;;;;2.08;1.00;;;;;;;15.05;35.18;93301.16;5094539;28;20417;-73
2022/04/02 11:03:39;;;;;;;3.00;1.20;;;;;;;15.30;39.63;93319.03;5110585;28;20024;-73
2022/04/02 11:06:08;;;;;;;2.38;1.27;;;;;;;15.01;38.37;93325.25;5110231;28;20119;-72
2022/04/02 11:08:33;;;;;;;5.45;3.58;;;;;;;15.00;40.22;93306.16;5076481;28;20447;-72
2022/04/02 11:11:13;;;;;;;3.00;1.60;;;;;;;15.01;38.96;93304.34;5093216;28;20085;-73
2022/04/02 11:13:41;;;;;;;2.28;1.08;;;;;;;14.80;39.31;93307.81;5110172;28;20123;-72
2022/04/02 11:16:13;;;;;;;2.15;0.90;;;;;;;14.85;38.74;93326.34;5093612;28;20028;-73
2022/04/02 11:19:53;;;;;;;1.45;0.90;;;;;;;14.70;39.31;93334.25;5110060;28;20016;-73
2022/04/02 11:21:24;;;;;;;1.90;0.82;;;;;;;14.63;40.88;93349.09;5110145;28;20124;-73
2022/04/02 11:23:55;;;;;;;4.32;1.30;;;;;;;14.51;42.63;93346.94;5109817;28;20092;-73
2022/04/02 11:26:21;;;;;;;2.35;1.10;;;;;;;14.50;42.54;93328.81;5092957;28;20036;-73
2022/04/02 11:28:47;;;;;;;2.45;1.40;;;;;;;14.40;40.73;93320.47;5092917;28;20050;-73
2022/04/02 11:31:13;;;;;;;1.73;1.10;;;;;;;14.39;40.92;93326.72;5093225;28;20428;-73
2022/04/02 11:33:52;;;;;;;1.83;0.90;;;;;;;14.42;41.38;93331.56;5110009;28;20251;-72
2022/04/02 11:36:37;;;;;;;2.60;0.90;;;;;;;14.41;40.23;93319.50;5092754;28;20062;-72
2022/04/02 11:39:03;;;;;;;2.35;1.15;;;;;;;14.43;39.74;93317.50;5094930;28;20031;-73
2022/04/02 11:41:34;;;;;;;2.10;0.90;;;;;;;14.28;39.25;93322.78;5092623;28;20027;-73
2022/04/02 11:44:08;;;;;;;1.55;0.80;;;;;;;14.11;43.54;93330.03;5092931;28;20127;-73